createdAt,value
2023-03-05T00:01:29.384Z,11.77
2023-03-05T00:04:31.394Z,11.50
2023-03-05T00:07:33.638Z,11.87
2023-03-05T00:10:35.717Z,12.83
2023-03-05T00:13:38.375Z,11.83
2023-03-05T00:16:40.569Z,12.93
2023-03-05T00:19:42.541Z,12.57
2023-03-05T00:22:44.531Z,12.17
2023-03-05T00:25:46.816Z,11.90
2023-03-05T00:28:50.482Z,12.30
2023-03-05T00:31:52.452Z,11.90
2023-03-05T00:34:54.468Z,12.07
2023-03-05T00:37:56.658Z,11.83
2023-03-05T00:40:58.553Z,11.53
2023-03-05T00:44:00.742Z,11.17
2023-03-05T00:47:02.716Z,10.40
2023-03-05T00:50:07.126Z,10.33
2023-03-05T00:53:09.074Z,11.67
2023-03-05T00:56:11.204Z,10.53
2023-03-05T00:59:13.271Z,11.13
2023-03-05T01:02:15.544Z,10.37
2023-03-05T01:05:17.602Z,10.87
2023-03-05T01:08:19.973Z,10.17
2023-03-05T01:11:22.596Z,9.53
2023-03-05T01:14:24.545Z,10.97
2023-03-05T01:17:26.560Z,9.67
2023-03-05T01:20:28.686Z,10.30
2023-03-05T01:23:30.806Z,9.20
2023-03-05T01:26:33.471Z,9.70
2023-03-05T01:29:37.271Z,9.57
2023-03-05T01:32:39.710Z,8.93
2023-03-05T01:35:41.812Z,9.90
2023-03-05T01:38:45.428Z,10.03
2023-03-05T01:41:47.462Z,8.80
2023-03-05T01:45:11.482Z,8.97
2023-03-05T01:48:13.603Z,9.30
2023-03-05T01:51:17.226Z,9.63
2023-03-05T01:54:22.146Z,9.10
2023-03-05T01:57:29.546Z,9.30
2023-03-05T02:00:36.373Z,10.43
2023-03-05T02:03:39.271Z,10.23
2023-03-05T02:06:43.491Z,9.83
2023-03-05T02:09:47.575Z,9.57
2023-03-05T02:12:51.850Z,10.50
2023-03-05T02:15:56.243Z,9.40
2023-03-05T02:18:58.193Z,9.67
2023-03-05T02:22:00.179Z,10.00
2023-03-05T02:25:02.159Z,9.53
2023-03-05T02:28:14.111Z,9.93
2023-03-05T02:31:20.141Z,10.27
2023-03-05T02:34:23.552Z,10.03
2023-03-05T02:37:25.586Z,9.97
2023-03-05T02:40:27.906Z,10.33
2023-03-05T02:43:30.027Z,9.73
2023-03-05T02:46:32.186Z,9.83
2023-03-05T02:49:34.172Z,10.53
2023-03-05T02:52:36.435Z,10.40
2023-03-05T02:55:40.442Z,10.20
2023-03-05T02:58:43.167Z,9.83
2023-03-05T03:01:45.197Z,9.33
2023-03-05T03:04:47.456Z,9.30
2023-03-05T03:07:50.153Z,9.17
2023-03-05T03:10:52.136Z,9.67
2023-03-05T03:13:54.126Z,9.80
2023-03-05T03:16:56.136Z,9.77
2023-03-05T03:19:58.205Z,9.03
2023-03-05T03:23:00.197Z,10.07
2023-03-05T03:26:02.224Z,8.93
2023-03-05T03:29:04.657Z,9.40
2023-03-05T03:32:08.463Z,9.53
2023-03-05T03:35:12.038Z,9.23
2023-03-05T03:38:14.217Z,8.30
2023-03-05T03:41:16.712Z,8.60
2023-03-05T03:44:20.052Z,8.80
2023-03-05T03:47:22.052Z,9.37
2023-03-05T03:50:25.224Z,8.10
2023-03-05T03:53:27.175Z,8.30
2023-03-05T03:56:29.114Z,8.63
2023-03-05T03:59:31.081Z,8.47
2023-03-05T04:02:33.478Z,8.10
2023-03-05T04:05:35.467Z,8.10
2023-03-05T04:08:37.518Z,8.00
2023-03-05T04:11:39.743Z,7.80
2023-03-05T04:14:41.733Z,7.83
2023-03-05T04:17:43.790Z,8.33
2023-03-05T04:20:45.797Z,8.20
2023-03-05T04:23:47.739Z,7.73
2023-03-05T04:26:49.682Z,7.97
2023-03-05T04:29:51.754Z,7.43
2023-03-05T04:32:53.865Z,8.37
2023-03-05T04:35:56.142Z,7.23
2023-03-05T04:38:58.155Z,8.17
2023-03-05T04:42:00.149Z,8.27
2023-03-05T04:45:02.203Z,8.03
2023-03-05T04:48:04.459Z,7.83
2023-03-05T04:51:06.736Z,7.40
2023-03-05T04:54:08.692Z,7.30
2023-03-05T04:57:10.959Z,8.67
2023-03-05T05:00:15.516Z,10.00
2023-03-05T05:03:17.563Z,10.27
2023-03-05T05:06:19.552Z,9.73
2023-03-05T05:09:21.584Z,9.97
2023-03-05T05:12:25.945Z,9.80
2023-03-05T05:15:27.886Z,11.00
2023-03-05T05:18:29.822Z,10.63
2023-03-05T05:21:31.846Z,11.63
2023-03-05T05:24:33.968Z,10.83
2023-03-05T05:27:36.396Z,11.10
2023-03-05T05:30:38.753Z,10.30
2023-03-05T05:33:41.433Z,12.13
2023-03-05T05:36:43.414Z,11.70
2023-03-05T05:39:50.290Z,11.93
2023-03-05T05:42:52.362Z,11.73
2023-03-05T05:45:54.440Z,12.23
2023-03-05T05:48:56.454Z,11.63
2023-03-05T05:51:59.370Z,10.70
2023-03-05T05:55:01.278Z,11.13
2023-03-05T05:58:03.286Z,11.03
2023-03-05T06:01:15.841Z,11.30
2023-03-05T06:04:17.860Z,11.53
2023-03-05T06:07:19.791Z,12.37
2023-03-05T06:10:21.734Z,11.67
2023-03-05T06:13:23.716Z,11.17
2023-03-05T06:16:26.147Z,10.07
2023-03-05T06:19:29.466Z,11.03
2023-03-05T06:22:31.579Z,11.40
2023-03-05T06:25:33.548Z,11.60
2023-03-05T06:28:36.677Z,11.23
2023-03-05T06:31:39.585Z,11.87
2023-03-05T06:34:41.595Z,11.33
2023-03-05T06:37:43.554Z,11.17
2023-03-05T06:40:45.543Z,12.90
2023-03-05T06:43:49.380Z,12.23
2023-03-05T06:46:51.423Z,13.03
2023-03-05T06:49:53.584Z,12.87
2023-03-05T06:52:55.709Z,12.33
2023-03-05T06:55:57.773Z,13.50
2023-03-05T06:58:59.753Z,11.67
2023-03-05T07:02:01.819Z,13.47
2023-03-05T07:05:04.959Z,13.20
2023-03-05T07:08:07.059Z,12.83
2023-03-05T07:11:13.905Z,12.40
2023-03-05T07:14:16.045Z,13.17
2023-03-05T07:17:18.318Z,11.17
2023-03-05T07:20:20.554Z,12.73
2023-03-05T07:23:22.628Z,12.20
2023-03-05T07:26:25.364Z,11.23
2023-03-05T07:29:28.135Z,10.77
2023-03-05T07:32:30.218Z,11.60
2023-03-05T07:35:32.237Z,11.37
2023-03-05T07:38:34.361Z,11.47
2023-03-05T07:41:36.434Z,11.47
2023-03-05T07:44:39.137Z,10.23
2023-03-05T07:47:41.199Z,10.87
2023-03-05T07:50:44.017Z,11.30
2023-03-05T07:53:47.570Z,11.60
2023-03-05T07:56:49.602Z,11.60
2023-03-05T07:59:51.557Z,11.27
2023-03-05T08:02:53.647Z,11.53
2023-03-05T08:05:55.987Z,12.27
2023-03-05T08:08:59.307Z,11.47
2023-03-05T08:12:01.413Z,12.03
2023-03-05T08:15:03.848Z,11.87
2023-03-05T08:18:06.236Z,11.77
2023-03-05T08:21:20.107Z,11.13
2023-03-05T08:24:23.559Z,11.63
2023-03-05T08:27:25.929Z,11.53
2023-03-05T08:30:28.129Z,13.00
2023-03-05T08:33:31.620Z,13.10
2023-03-05T08:36:34.289Z,12.83
2023-03-05T08:39:37.269Z,12.23
2023-03-05T08:42:39.327Z,13.17
2023-03-05T08:45:41.291Z,13.23
2023-03-05T08:48:43.610Z,12.63
2023-03-05T08:51:45.597Z,13.33
2023-03-05T08:54:47.607Z,12.73
2023-03-05T08:57:49.590Z,12.80
2023-03-05T09:00:52.039Z,11.53
2023-03-05T09:03:54.221Z,12.40
2023-03-05T09:06:57.554Z,12.20
2023-03-05T09:09:59.482Z,12.03
2023-03-05T09:13:02.304Z,12.17
2023-03-05T09:16:12.056Z,11.27
2023-03-05T09:19:15.360Z,12.30
2023-03-05T09:22:17.386Z,12.03
2023-03-05T09:25:19.526Z,13.20
2023-03-05T09:28:21.566Z,12.70
2023-03-05T09:31:23.819Z,11.80
2023-03-05T09:34:25.860Z,12.70
2023-03-05T09:37:29.561Z,11.80
2023-03-05T09:40:50.491Z,10.80
2023-03-05T09:44:13.973Z,12.73
2023-03-05T09:47:18.970Z,11.70
2023-03-05T09:50:44.281Z,11.90
2023-03-05T09:53:56.184Z,11.67
2023-03-05T09:57:04.539Z,11.20
2023-03-05T10:00:16.940Z,11.53
2023-03-05T10:03:25.947Z,12.13
2023-03-05T10:06:41.984Z,13.77
2023-03-05T10:09:57.004Z,12.80
2023-03-05T10:13:05.783Z,12.50
2023-03-05T10:16:31.018Z,12.97
2023-03-05T10:19:47.500Z,11.90
2023-03-05T10:22:59.085Z,12.30
2023-03-05T10:26:04.406Z,13.17
2023-03-05T10:29:38.433Z,13.27
2023-03-05T10:32:49.470Z,11.87
2023-03-05T10:36:27.778Z,12.50
2023-03-05T10:40:02.508Z,12.87
2023-03-05T10:43:10.601Z,12.20
2023-03-05T10:46:26.607Z,12.40
2023-03-05T10:49:37.757Z,12.70
2023-03-05T10:52:46.970Z,12.07
2023-03-05T10:55:50.972Z,12.90
2023-03-05T10:58:53.828Z,13.23
2023-03-05T11:02:08.940Z,13.33
2023-03-05T11:05:43.301Z,14.27
2023-03-05T11:08:45.450Z,13.43
2023-03-05T11:12:09.345Z,13.10
2023-03-05T11:15:14.998Z,11.87
2023-03-05T11:18:22.979Z,14.10
2023-03-05T11:21:28.140Z,12.97
2023-03-05T11:24:30.435Z,13.10
2023-03-05T11:27:38.018Z,13.07
2023-03-05T11:30:40.864Z,12.70
2023-03-05T11:34:08.992Z,12.70
2023-03-05T11:37:23.886Z,12.23
2023-03-05T11:40:30.078Z,12.07
2023-03-05T11:43:34.787Z,12.70
2023-03-05T11:46:50.931Z,11.50
2023-03-05T11:50:00.964Z,12.33
2023-03-05T11:53:14.548Z,11.77
2023-03-05T11:56:21.170Z,11.20
2023-03-05T11:59:36.083Z,10.43
2023-03-05T12:02:39.624Z,12.07
2023-03-05T12:05:46.428Z,11.27
2023-03-05T12:08:55.866Z,11.40
2023-03-05T12:12:08.078Z,11.10
2023-03-05T12:15:14.508Z,10.37
2023-03-05T12:18:29.881Z,11.23
2023-03-05T12:21:43.364Z,10.60
2023-03-05T12:24:45.901Z,10.63
2023-03-05T12:27:48.806Z,9.97
2023-03-05T12:30:50.940Z,11.37
2023-03-05T12:33:53.678Z,11.20
2023-03-05T12:36:56.477Z,11.97
2023-03-05T12:40:09.079Z,10.53
2023-03-05T12:43:31.165Z,11.07
2023-03-05T12:46:42.045Z,9.67
2023-03-05T12:49:48.958Z,10.07
2023-03-05T12:52:51.449Z,10.27
2023-03-05T12:56:16.839Z,10.47
2023-03-05T12:59:22.127Z,10.50
2023-03-05T13:02:32.206Z,10.80
2023-03-05T13:05:40.585Z,10.33
2023-03-05T13:08:47.234Z,9.20
2023-03-05T13:11:53.519Z,10.57
2023-03-05T13:15:09.663Z,9.93
2023-03-05T13:18:25.869Z,9.80
2023-03-05T13:21:32.941Z,10.20
2023-03-05T13:24:35.400Z,9.80
2023-03-05T13:27:38.323Z,10.03
2023-03-05T13:30:51.775Z,9.83
2023-03-05T13:34:00.428Z,9.63
2023-03-05T13:37:11.279Z,9.33
2023-03-05T13:40:23.077Z,10.03
2023-03-05T13:43:25.985Z,9.97
2023-03-05T13:46:41.600Z,10.03
2023-03-05T13:49:47.110Z,10.00
2023-03-05T13:52:51.326Z,10.00
2023-03-05T13:55:58.141Z,9.57
2023-03-05T13:59:01.524Z,9.50
2023-03-05T14:02:25.155Z,10.17
2023-03-05T14:05:31.573Z,9.33
2023-03-05T14:08:34.238Z,9.40
2023-03-05T14:11:37.208Z,8.90
2023-03-05T14:14:39.982Z,11.35
2023-03-05T14:17:44.205Z,9.47
2023-03-05T14:21:00.357Z,10.13
2023-03-05T14:24:16.357Z,9.93
2023-03-05T14:27:22.585Z,10.50
2023-03-05T14:30:26.225Z,10.43
2023-03-05T14:33:35.584Z,9.40
2023-03-05T14:36:40.501Z,9.37
2023-03-05T14:39:51.679Z,10.33
2023-03-05T14:42:57.247Z,9.10
2023-03-05T14:46:00.360Z,9.77
2023-03-05T14:49:04.522Z,8.70
2023-03-05T14:52:07.430Z,9.67
2023-03-05T14:55:18.563Z,9.57
2023-03-05T14:58:36.041Z,7.80
2023-03-05T15:01:42.004Z,7.77
2023-03-05T15:04:46.833Z,8.80
2023-03-05T15:07:50.045Z,7.67
2023-03-05T15:10:54.229Z,9.10
2023-03-05T15:13:58.203Z,8.53
2023-03-05T15:17:02.651Z,8.67
2023-03-05T15:20:08.770Z,8.20
2023-03-05T15:23:13.571Z,7.97
2023-03-05T15:26:19.028Z,7.90
2023-03-05T15:29:21.675Z,8.53
2023-03-05T15:32:28.572Z,8.30
2023-03-05T15:35:33.385Z,8.80
2023-03-05T15:38:36.457Z,8.07
2023-03-05T15:41:39.667Z,7.27
2023-03-05T15:44:43.908Z,7.90
2023-03-05T15:47:50.894Z,7.77
2023-03-05T15:50:53.754Z,8.30
2023-03-05T15:53:56.849Z,7.13
2023-03-05T15:57:00.318Z,7.97
2023-03-05T16:00:07.665Z,7.43
2023-03-05T16:03:12.800Z,7.77
2023-03-05T16:06:20.978Z,7.20
2023-03-05T16:09:24.278Z,6.47
2023-03-05T16:12:32.049Z,6.97
2023-03-05T16:15:36.165Z,7.50
2023-03-05T16:18:46.833Z,6.50
2023-03-05T16:21:53.476Z,7.83
2023-03-05T16:24:57.227Z,7.90
2023-03-05T16:27:59.849Z,6.67
2023-03-05T16:31:04.054Z,7.57
2023-03-05T16:34:08.474Z,8.07
2023-03-05T16:37:22.947Z,6.77
2023-03-05T16:40:44.245Z,7.50
2023-03-05T16:43:57.076Z,8.17
2023-03-05T16:47:00.535Z,8.10
2023-03-05T16:50:04.229Z,7.37
2023-03-05T16:53:07.493Z,7.57
2023-03-05T16:56:11.156Z,7.40
2023-03-05T16:59:15.138Z,7.53
2023-03-05T17:02:19.386Z,8.50
2023-03-05T17:05:22.616Z,7.80
2023-03-05T17:08:26.043Z,7.80
2023-03-05T17:11:29.890Z,7.97
2023-03-05T17:14:34.143Z,6.43
2023-03-05T17:17:38.453Z,8.07
2023-03-05T17:20:43.038Z,7.57
2023-03-05T17:23:46.941Z,8.37
2023-03-05T17:26:50.446Z,7.87
2023-03-05T17:29:53.792Z,7.83
2023-03-05T17:32:58.713Z,8.13
2023-03-05T17:36:02.514Z,7.63
2023-03-05T17:39:07.077Z,8.30
2023-03-05T17:42:11.792Z,8.43
2023-03-05T17:45:15.776Z,8.10
2023-03-05T17:48:20.531Z,7.43
2023-03-05T17:51:27.278Z,8.23
2023-03-05T17:54:30.805Z,7.97
2023-03-05T17:57:37.700Z,8.23
2023-03-05T18:00:41.020Z,6.57
2023-03-05T18:03:44.552Z,7.43
2023-03-05T18:06:47.943Z,7.50
2023-03-05T18:09:50.944Z,7.73
2023-03-05T18:12:55.019Z,8.63
2023-03-05T18:16:01.082Z,7.53
2023-03-05T18:19:04.931Z,7.97
2023-03-05T18:22:09.176Z,7.93
2023-03-05T18:25:12.747Z,7.07
2023-03-05T18:28:18.166Z,7.33
2023-03-05T18:31:21.590Z,6.80
2023-03-05T18:34:26.548Z,6.87
2023-03-05T18:37:29.801Z,7.00
2023-03-05T18:40:36.265Z,7.17
2023-03-05T18:43:41.374Z,7.30
2023-03-05T18:46:44.184Z,8.03
2023-03-05T18:49:46.718Z,7.73
2023-03-05T18:52:49.800Z,7.57
2023-03-05T18:55:54.374Z,7.03
2023-03-05T18:58:58.929Z,7.67
2023-03-05T19:02:03.589Z,8.23
2023-03-05T19:05:06.573Z,8.00
2023-03-05T19:08:09.698Z,7.43
2023-03-05T19:11:21.459Z,7.97
2023-03-05T19:14:24.860Z,6.80
2023-03-05T19:17:28.258Z,7.27
2023-03-05T19:20:31.050Z,6.33
2023-03-05T19:23:34.341Z,7.37
2023-03-05T19:26:37.939Z,7.47
2023-03-05T19:29:45.774Z,8.73
2023-03-05T19:32:50.401Z,6.60
2023-03-05T19:35:53.658Z,7.20
2023-03-05T19:39:00.041Z,7.57
2023-03-05T19:42:03.168Z,6.50
2023-03-05T19:45:07.696Z,7.97
2023-03-05T19:48:11.032Z,8.53
2023-03-05T19:51:16.917Z,8.33
2023-03-05T19:54:21.747Z,8.20
2023-03-05T19:57:24.305Z,7.67
2023-03-05T20:00:28.256Z,8.73
2023-03-05T20:03:33.997Z,8.03
2023-03-05T20:06:37.278Z,8.27
2023-03-05T20:09:40.502Z,7.27
2023-03-05T20:12:44.842Z,7.90
2023-03-05T20:15:48.353Z,8.17
2023-03-05T20:18:53.648Z,8.43
2023-03-05T20:21:58.003Z,7.70
2023-03-05T20:25:01.164Z,8.47
2023-03-05T20:28:04.480Z,7.67
2023-03-05T20:31:08.265Z,6.77
2023-03-05T20:34:14.702Z,7.23
2023-03-05T20:37:17.555Z,6.97
2023-03-05T20:40:20.312Z,6.37
2023-03-05T20:46:50.414Z,6.20
2023-03-05T20:49:56.770Z,6.53
2023-03-05T20:53:00.668Z,6.37
2023-03-05T20:56:03.902Z,6.73
2023-03-05T20:59:09.365Z,6.83
2023-03-05T21:02:12.247Z,6.77
2023-03-05T21:05:15.280Z,6.53
2023-03-05T21:08:26.791Z,6.40
2023-03-05T21:11:29.908Z,6.10
2023-03-05T21:14:37.876Z,7.20
2023-03-05T21:17:42.488Z,6.77
2023-03-05T21:20:47.064Z,7.83
2023-03-05T21:23:50.199Z,6.60
2023-03-05T21:26:53.004Z,7.43
2023-03-05T21:29:58.028Z,7.17
2023-03-05T21:33:04.610Z,7.00
2023-03-05T21:36:08.396Z,8.00
2023-03-05T21:39:10.519Z,7.73
2023-03-05T21:42:13.470Z,7.83
2023-03-05T21:45:19.072Z,7.33
2023-03-05T21:48:22.485Z,7.50
2023-03-05T21:51:29.057Z,7.73
2023-03-05T21:54:31.085Z,7.57
2023-03-05T21:57:33.441Z,7.80
2023-03-05T22:00:35.348Z,7.73
2023-03-05T22:03:37.708Z,6.93
2023-03-05T22:06:39.725Z,7.63
2023-03-05T22:09:42.080Z,8.20
2023-03-05T22:13:11.828Z,8.67
2023-03-05T22:16:23.256Z,7.63
2023-03-05T22:19:25.317Z,7.97
2023-03-05T22:22:27.401Z,8.43
2023-03-05T22:25:29.351Z,7.33
2023-03-05T22:28:32.352Z,8.33
2023-03-05T22:31:34.566Z,7.90
2023-03-05T22:34:37.733Z,8.10
2023-03-05T22:37:41.560Z,7.40
2023-03-05T22:40:45.890Z,7.73
2023-03-05T22:43:49.823Z,7.63
2023-03-05T22:46:51.903Z,7.77
2023-03-05T22:49:54.243Z,6.90
2023-03-05T22:52:56.400Z,7.03
2023-03-05T22:55:58.576Z,6.67
2023-03-05T22:59:00.577Z,5.67
2023-03-05T23:02:02.601Z,6.53
2023-03-05T23:05:05.165Z,6.57
2023-03-05T23:08:08.005Z,6.43
2023-03-05T23:11:11.876Z,6.13
2023-03-05T23:14:13.973Z,6.37
2023-03-05T23:17:16.030Z,6.20
2023-03-05T23:20:21.419Z,6.50
2023-03-05T23:23:23.385Z,6.87
2023-03-05T23:26:25.440Z,5.87
2023-03-05T23:29:27.725Z,6.40
2023-03-05T23:32:29.840Z,6.07
2023-03-05T23:35:37.417Z,5.47
2023-03-05T23:38:39.464Z,6.00
2023-03-05T23:41:41.407Z,5.37
2023-03-05T23:44:43.397Z,5.30
2023-03-05T23:47:46.448Z,5.27
2023-03-05T23:50:49.401Z,5.47
2023-03-05T23:53:51.365Z,5.07
2023-03-05T23:56:53.315Z,5.00
2023-03-05T23:59:55.248Z,5.00
